My Meet Scores
Kaylee Marshall, Patti Dunne's School Of Gymnastics - MyMeetScores.com
Top100 | Top Teams | Upcoming Meets | Completed Meets | Latest | Add Scores | Help| Support | Bookmark and Share

Kaylee Marshall, Patti Dunne's School Of Gymnastics
Personal Bests
LevelVault BarsBeamFloorAA
39.6009.650 9.7509.30037.700
49.6009.450 9.2509.10037.200
59.5009.350 9.0509.55037.400
69.1258.050 9.1508.95035.275
XS9.4509.400 9.4009.10037.350
Meet Scores
Date Meet Team Session Level Division Vault Bars Beam Floor AA
2019-12-06 Rhode Island Invitational Patti Dunne%27s School Of Gymnastics GF2 6 senior 9.125 5 8.050 7 9.150 3 8.950 3 35.275 6
2019-02-08 Team Challenge 2019 Patti Dunne's School Of Gymnastics B4 5 Sr B 9.500 3T 9.350 2 9.000 8T 9.550 2 37.400 3
2019-02-01 State Level 4&5 Patti Dunne's School Of Gymnastics 6 5 12 Yrs 9.375 4 8.425 25T 8.900 15 9.375 5 36.075 7
2019-01-26 Manhattan Classic Patti Dunne's School Of Gymnastics 5CP 5 Senior 9.050 6T 9.100 6 9.050 2T 9.125 4T 36.325 3
2019-01-18 DGS Northeast Invite Patti Dunne's School Of Gymnastics 5A 5 Jr B 9.225 1 8.750 3 8.650 2 8.825 3 35.450 2
2019-01-10 Little Boston Invitational Patti Dunne's School Of Gymnastics D04 5 SR 8.700 14 7.950 18T 8.100 22T 8.475 22T 33.225 28
2018-12-14 Shen's New England Classic Patti Dunne's School Of Gymnastics 01 5 JR B 8.850 5 8.525 6 8.400 7 9.000 1T 34.775 5
2018-12-08 American Gymnastics Invitational Patti Dunne's School Of Gymnastics 6 5 Jr A 9.100 2 7.675 3 8.550 3 9.000 4 34.325 3
2018-11-17 2018 Connecticut Judge's Cup Patti Dunne's School Of Gymnastics 5 5 12+ yrs. 8.550 28T 0.000 58T 7.500 54 8.425 43 24.475 57
2018-02-16 Chelsea Piers Winter Challenge Patti Dunne's School Of Gymnastics F-4 4 Senior 9.550 2T 9.450 2 9.250 1 8.950 8 37.200 2
2018-02-09 Team Challenge 2018 Patti Dunne's School Of Gymnastics 08B 4 Sr B 9.600 2 9.325 2 9.100 4 9.100 3 37.125 2
2018-02-03 Level 4 & 5 States Patti Dunne's School Of Gymnastics 4 4 11 B 9.300 4 8.775 12 9.225 14T 8.675 24T 35.975 8
2018-01-19 Kinetic Kids Invitational Patti Dunne's School Of Gymnastics 2 4 Sr B 9.000 7T 9.400 3T 9.150 4 8.850 4T 36.400 2
2018-01-12 DGS Invitational Patti Dunne's School Of Gymnastics 5B 4 11 yrs. 8.875 3 8.500 5 8.775 8 8.425 8 34.575 4
2017-11-30 Rhode Island Invitational Patti Dunne's School Of Gymnastics BF1 4 Senior 8.750 1 9.100 2 8.750 4 8.500 4 35.100 2
2017-03-25 2017 Connecticut Level 3 State Cup Patti Dunne's School Of Gymnastics 6 3 N/A 9.300 10T 9.500 1 9.200 3 9.000 22T 37.000 2
2017-02-18 Chelsea Piers Winter Challenge Patti Dunne's School Of Gymnastics F-4 3 Sr 9.300 4T 9.650 1 9.750 3T 9.000 2 37.700 1
2017-02-10 Team Challenge 2017 Patti Dunne's School Of Gymnastics 10B 3 Senior 9.025 6T 9.350 4T 9.275 3 9.300 2T 36.950 2
2017-01-27 24th Annual American Invitational Patti Dunne's School Of Gymnastics 6A 3 Senior 9.600 1T 8.900 16T 9.350 1 8.750 20T 36.600 3T
2017-01-13 Northeast Invitational Patti Dunne's School Of Gymnastics 9 3 10-11 yrs. 9.450 1 9.200 3T 9.650 1 9.000 3 37.300 2
2016-12-02 Rhode Island Invitational Patti Dunne's School Of Gymnastics WS4 3 Senior 9.425 3 8.725 8 8.850 4 8.650 11 35.650 4
2016-04-30 2016 Connecticut XS State Championships Patti Dunne's School Of Gymnastics All XS ChD 8.475 11 9.300 3 9.350 5T 8.850 9T 35.975 7
2016-02-26 2016 February Flip Patti Dunne's School Of Gymnastics 1 XS 10 yrs. 9.450 1 9.400 1 9.400 2T 9.100 5T 37.350 1
2016-01-15 DGS Invitational Patti Dunne's School Of Gymnastics B2 XS 9 yrs. 9.200 2T 9.200 1 9.200 1 9.100 1 36.700 1
2015-12-11 2015 Reindeer Games Patti Dunne's School Of Gymnastics 2 XS Junior 8.900 4 9.100 8T 9.100 7T 8.750 9 35.850 4T
Get your scores on
a t-shirt, pin, or hoodie

Order by December 13

www.lazysuits.com